Weather at Federal Border Guard No. 15 Helipad

Public forecast

Using degrees Celsius for public forecast. Weather courtesy of forecast.io.

Closest aviation weather report (METAR) to Federal Border Guard No. 15 Helipad

Closest report is Hatay Airport, 14.3 nm (26.5 km) WSW.

2024/02/25 04:50 (retrieved 48 minutes ago)

LTDA 250450Z 05003KT 020V090 0300 R22/0175N R04/0175N FG FEW035 05/05 Q1021 NOSIG

Closest aviation forecast (TAF) to Federal Border Guard No. 15 Helipad

Forecast is more than 6 hours old.

Closest forecast is Beirut Rafic Hariri International Airport, 167.2 nm (309.7 km) SSW.

2024/02/24 18:02 (retrieved 12 hours ago)

TAF OLBA 241600Z 2418/2524 29010KT 8000 SCT070 BECMG 2421/2424 03005KT BECMG 2503/2506 VRB02KT TEMPO 2418/2506 5000 BR